createdAt,value
2017-09-15T04:36:12.149Z,99.99
2017-09-15T04:37:25.853Z,99.99
2017-09-15T04:38:39.677Z,99.99
2017-09-15T04:39:53.446Z,99.99
2017-09-15T04:41:15.282Z,99.99
2017-09-15T04:42:39.752Z,99.99
2017-09-15T04:44:00.858Z,99.99
2017-09-15T04:45:14.427Z,99.99
2017-09-15T04:46:28.315Z,99.99
2017-09-15T04:47:42.549Z,99.99
2017-09-15T04:49:19.527Z,99.99
2017-09-15T04:50:33.386Z,99.99
2017-09-15T04:51:47.367Z,99.99
2017-09-15T04:53:01.158Z,99.99
2017-09-15T04:54:15.444Z,99.99
2017-09-15T04:55:29.446Z,99.99
2017-09-15T04:56:44.716Z,99.99
2017-09-15T04:57:58.472Z,99.99
2017-09-15T04:59:12.634Z,99.99
2017-09-15T05:00:40.544Z,99.99
2017-09-15T05:01:54.518Z,99.99
2017-09-15T05:03:08.429Z,99.99
2017-09-15T05:04:22.538Z,99.99
2017-09-15T05:05:36.487Z,99.99
2017-09-15T05:06:50.412Z,99.99
2017-09-15T05:08:50.512Z,99.99
2017-09-15T05:10:04.308Z,99.99
2017-09-15T05:11:18.290Z,99.99
2017-09-15T05:12:33.146Z,99.99
2017-09-15T05:13:46.989Z,99.99
2017-09-15T05:15:01.255Z,99.99
2017-09-15T05:16:15.430Z,99.99
2017-09-15T05:18:08.935Z,99.99
2017-09-15T05:19:22.765Z,99.99
2017-09-15T05:20:36.661Z,99.99
2017-09-15T05:21:50.601Z,99.99
2017-09-15T05:23:04.747Z,99.99
2017-09-15T05:24:19.200Z,99.99
2017-09-15T05:25:32.919Z,99.99
2017-09-15T05:26:49.765Z,99.99
2017-09-15T05:28:03.409Z,99.99
2017-09-15T05:29:38.711Z,99.99
2017-09-15T05:30:52.449Z,99.99
2017-09-15T05:32:06.090Z,99.99
2017-09-15T05:33:19.951Z,99.99
2017-09-15T05:34:34.002Z,99.99
2017-09-15T05:35:48.107Z,99.99
2017-09-15T05:37:02.194Z,99.99
2017-09-15T05:38:16.091Z,99.99
2017-09-15T05:39:29.702Z,99.99
2017-09-15T05:41:03.387Z,99.99
2017-09-15T05:42:17.117Z,99.99
2017-09-15T05:43:30.859Z,99.99
2017-09-15T05:44:45.286Z,99.99
2017-09-15T05:45:59.069Z,99.99
2017-09-15T05:47:13.126Z,99.99
2017-09-15T05:48:27.058Z,99.99
2017-09-15T05:49:41.529Z,99.99
2017-09-15T05:50:55.705Z,99.99
2017-09-15T05:52:10.088Z,99.99
2017-09-15T05:53:24.118Z,99.99
2017-09-15T05:54:40.045Z,99.99
2017-09-15T05:55:55.447Z,99.99
2017-09-15T05:57:26.117Z,99.99
2017-09-15T05:59:00.234Z,99.99
2017-09-15T06:00:46.004Z,99.99
2017-09-15T06:02:00.063Z,99.99
2017-09-15T06:03:14.685Z,99.99
2017-09-15T06:04:42.483Z,99.99
2017-09-15T06:05:56.772Z,99.99
2017-09-15T06:07:10.956Z,99.99
2017-09-15T06:08:24.671Z,99.99
2017-09-15T06:09:45.809Z,99.99
2017-09-15T06:11:06.292Z,99.99
2017-09-15T06:12:20.626Z,99.99
2017-09-15T06:13:34.500Z,99.99
2017-09-15T06:15:40.827Z,99.99
2017-09-15T06:16:54.766Z,99.99
2017-09-15T06:18:08.377Z,99.99
2017-09-15T06:19:22.248Z,99.99
2017-09-15T06:20:35.819Z,99.99
2017-09-15T06:21:49.665Z,99.99
2017-09-15T06:23:04.013Z,99.99
2017-09-15T06:24:18.339Z,99.99
2017-09-15T06:25:32.249Z,99.99
2017-09-15T06:26:46.187Z,99.99
2017-09-15T06:28:00.495Z,99.99
2017-09-15T06:29:14.796Z,99.99
2017-09-15T06:30:29.355Z,99.99
2017-09-15T06:32:11.160Z,99.99
2017-09-15T06:33:24.931Z,99.99
2017-09-15T06:34:38.801Z,99.99
2017-09-15T06:35:52.663Z,99.99
2017-09-15T06:37:06.597Z,99.99
2017-09-15T06:38:21.043Z,99.99
2017-09-15T06:39:35.199Z,99.99
2017-09-15T06:40:49.005Z,99.99
2017-09-15T06:42:02.801Z,99.99
2017-09-15T06:43:16.629Z,99.99
2017-09-15T06:44:30.639Z,99.99
2017-09-15T06:45:45.012Z,99.99
2017-09-15T06:47:01.743Z,99.99
2017-09-15T06:48:33.797Z,99.99
2017-09-15T06:49:47.600Z,99.99
2017-09-15T06:51:01.245Z,99.99
2017-09-15T06:52:15.762Z,99.99
2017-09-15T06:53:29.364Z,99.99
2017-09-15T06:54:43.562Z,99.99
2017-09-15T06:55:57.592Z,99.99
2017-09-15T06:57:11.453Z,99.99
2017-09-15T06:58:25.040Z,99.99
2017-09-15T06:59:41.530Z,99.99
2017-09-15T07:00:55.376Z,99.99
2017-09-15T07:02:23.536Z,99.99
2017-09-15T07:03:37.869Z,99.99
2017-09-15T07:04:52.304Z,99.99
2017-09-15T07:06:06.282Z,99.99
2017-09-15T07:07:20.150Z,99.99
2017-09-15T07:08:35.132Z,99.99
2017-09-15T07:09:49.570Z,99.99
2017-09-15T07:11:04.125Z,99.99
2017-09-15T07:12:47.983Z,99.99
2017-09-15T07:14:01.674Z,99.99
2017-09-15T07:15:15.432Z,99.99
2017-09-15T07:16:30.655Z,99.99
2017-09-15T07:17:47.277Z,99.99
2017-09-15T07:19:27.524Z,99.99
2017-09-15T07:20:41.384Z,99.99
2017-09-15T07:21:57.494Z,99.99
2017-09-15T07:23:11.653Z,99.99
2017-09-15T07:24:25.328Z,99.99
2017-09-15T07:25:39.246Z,99.99
2017-09-15T07:26:53.173Z,99.99
2017-09-15T07:28:38.512Z,99.99
2017-09-15T07:29:52.586Z,99.99
2017-09-15T07:31:07.137Z,99.99
2017-09-15T07:32:21.450Z,99.99
2017-09-15T07:33:35.166Z,99.99
2017-09-15T07:34:49.308Z,99.99
2017-09-15T07:36:03.397Z,99.99
2017-09-15T07:37:17.993Z,99.99
2017-09-15T07:38:31.640Z,99.99
2017-09-15T07:39:45.648Z,99.99
2017-09-15T07:40:59.764Z,99.99
2017-09-15T07:42:58.634Z,99.99
2017-09-15T07:44:13.274Z,99.99
2017-09-15T07:45:31.622Z,99.99
2017-09-15T07:47:33.712Z,99.99
2017-09-15T07:49:17.688Z,99.99
2017-09-15T07:50:42.480Z,99.99
2017-09-15T07:52:07.818Z,99.99
2017-09-15T07:53:33.849Z,99.99
2017-09-15T07:54:56.221Z,99.99
2017-09-15T07:56:45.218Z,99.99
2017-09-15T07:58:20.270Z,99.99
2017-09-15T07:59:47.620Z,99.99
2017-09-15T08:01:11.606Z,99.99
2017-09-15T08:02:35.529Z,99.99
2017-09-15T08:04:01.254Z,99.99
2017-09-15T08:05:44.288Z,99.99
2017-09-15T08:07:06.076Z,99.99
2017-09-15T08:08:25.816Z,99.99
2017-09-15T08:09:52.511Z,99.99
2017-09-15T08:11:22.327Z,99.99
2017-09-15T08:12:48.540Z,99.99
2017-09-15T08:14:12.824Z,99.99
2017-09-15T08:15:39.794Z,99.99
2017-09-15T08:17:06.438Z,99.99
2017-09-15T08:18:43.498Z,99.99
2017-09-15T08:20:55.132Z,99.99
2017-09-15T08:22:46.260Z,99.99
2017-09-15T08:24:13.963Z,99.99
2017-09-15T08:25:38.191Z,99.99
2017-09-15T08:27:31.068Z,99.99
2017-09-15T08:29:06.067Z,99.99
2017-09-15T08:30:55.242Z,99.99
2017-09-15T08:32:33.109Z,99.99
2017-09-15T08:33:56.829Z,99.99
2017-09-15T08:35:21.469Z,99.99
2017-09-15T08:36:47.703Z,99.99
2017-09-15T08:38:10.516Z,99.99
2017-09-15T08:40:03.260Z,99.99
2017-09-15T08:41:51.645Z,99.99
2017-09-15T08:43:33.403Z,99.99
2017-09-15T08:45:00.308Z,99.99
2017-09-15T08:46:23.821Z,99.99
2017-09-15T08:47:48.185Z,99.99
2017-09-15T08:49:18.632Z,99.99
2017-09-15T08:50:43.621Z,99.99
2017-09-15T08:52:07.523Z,99.99
2017-09-15T08:54:08.692Z,99.99
2017-09-15T08:55:45.445Z,99.99
2017-09-15T08:57:11.044Z,99.99
2017-09-15T08:58:34.156Z,99.99
2017-09-15T08:59:56.146Z,99.99
2017-09-15T09:01:19.150Z,99.99
2017-09-15T09:02:45.044Z,99.99
2017-09-15T09:04:10.386Z,99.99
2017-09-15T09:05:42.528Z,99.99
2017-09-15T09:07:03.017Z,99.99
2017-09-15T09:08:24.431Z,99.99
2017-09-15T09:09:56.841Z,99.99
2017-09-15T09:11:18.553Z,99.99
2017-09-15T09:13:45.530Z,99.99
2017-09-15T09:15:08.153Z,99.99
2017-09-15T09:16:30.746Z,99.99
2017-09-15T09:17:52.784Z,99.99
2017-09-15T09:19:06.932Z,99.99
2017-09-15T09:20:20.655Z,99.99
2017-09-15T09:21:34.870Z,99.99
2017-09-15T09:22:48.785Z,99.99
2017-09-15T09:24:02.970Z,98.52
2017-09-15T09:25:16.693Z,97.76
2017-09-15T09:26:30.387Z,97.61
2017-09-15T09:27:44.533Z,97.85
2017-09-15T09:28:58.269Z,97.76
2017-09-15T09:30:12.250Z,97.09
2017-09-15T09:31:26.182Z,96.99
2017-09-15T09:32:40.517Z,97.09
2017-09-15T09:33:55.363Z,97.76
2017-09-15T09:35:09.460Z,96.8
2017-09-15T09:36:23.228Z,97.09
2017-09-15T09:37:36.984Z,96.13
2017-09-15T09:38:50.854Z,97.18
2017-09-15T09:40:05.081Z,97.47
2017-09-15T09:41:18.760Z,96.94
2017-09-15T09:42:32.791Z,98.28
2017-09-15T09:43:46.525Z,97.42
2017-09-15T09:45:00.406Z,96.85
2017-09-15T09:46:14.659Z,97.23
2017-09-15T09:47:28.584Z,97.76
2017-09-15T09:48:42.332Z,98.43
2017-09-15T09:49:56.119Z,98.24
2017-09-15T09:51:09.765Z,99.58
2017-09-15T09:52:24.728Z,98.33
2017-09-15T09:53:38.593Z,97.28
2017-09-15T09:54:52.905Z,96.94
2017-09-15T09:56:06.561Z,96.94
2017-09-15T09:57:20.867Z,96.66
2017-09-15T09:58:34.769Z,95.21
2017-09-15T09:59:48.373Z,95.79
2017-09-15T10:01:02.220Z,96.75
2017-09-15T10:02:16.523Z,97.47
2017-09-15T10:03:30.595Z,97.38
2017-09-15T10:04:44.188Z,97.28
2017-09-15T10:06:00.632Z,97.42
2017-09-15T10:07:15.076Z,97.9
2017-09-15T10:08:28.899Z,97.14
2017-09-15T10:09:42.629Z,96.56
2017-09-15T10:10:56.969Z,96.32
2017-09-15T10:12:11.164Z,96.51
2017-09-15T10:13:25.032Z,96.7
2017-09-15T10:14:39.310Z,96.89
2017-09-15T10:15:53.683Z,97.09
2017-09-15T10:17:11.351Z,97.09
2017-09-15T10:18:31.535Z,97.38
2017-09-15T10:19:45.202Z,97.47
2017-09-15T10:21:00.805Z,97.38
2017-09-15T10:22:16.812Z,96.7
2017-09-15T10:23:30.805Z,96.7
2017-09-15T10:24:44.783Z,95.94
2017-09-15T10:26:00.088Z,97.09
2017-09-15T10:27:15.216Z,97.47
2017-09-15T10:28:29.587Z,97.28
2017-09-15T10:29:45.006Z,96.8
2017-09-15T10:30:58.988Z,97.09
2017-09-15T10:32:13.093Z,96.99
2017-09-15T10:33:26.870Z,96.8
2017-09-15T10:34:40.562Z,96.22
2017-09-15T10:35:55.084Z,95.17
2017-09-15T10:37:09.016Z,95.31
2017-09-15T10:38:22.631Z,95.6
2017-09-15T10:39:36.366Z,96.08
2017-09-15T10:40:50.515Z,94.93
2017-09-15T10:42:04.194Z,95.31
2017-09-15T10:43:17.782Z,94.45
2017-09-15T10:44:31.391Z,93.11
2017-09-15T10:45:45.237Z,92.96
2017-09-15T10:46:59.054Z,91.96
2017-09-15T10:48:12.727Z,90.22
2017-09-15T10:49:26.347Z,91.04
2017-09-15T10:50:39.988Z,90.66
2017-09-15T10:51:53.872Z,89.26
2017-09-15T10:53:07.910Z,89.26
2017-09-15T10:54:21.770Z,87.86
2017-09-15T10:55:35.383Z,88.63
2017-09-15T10:56:49.384Z,86.42
2017-09-15T10:58:02.992Z,86.71
2017-09-15T10:59:16.678Z,85.94
2017-09-15T11:00:30.492Z,87.43
2017-09-15T11:01:44.094Z,87.92
2017-09-15T11:02:57.766Z,88.3
2017-09-15T11:04:11.451Z,88.64
2017-09-15T11:05:25.067Z,89.89
2017-09-15T11:06:38.853Z,90.03
2017-09-15T11:07:53.083Z,91.09
2017-09-15T11:09:26.823Z,91.38
2017-09-15T11:10:40.579Z,90.8
2017-09-15T11:11:55.264Z,91.28
2017-09-15T11:13:08.869Z,91.09
2017-09-15T11:14:22.648Z,90.8
2017-09-15T11:15:36.834Z,91.38
2017-09-15T11:16:50.933Z,90.9
2017-09-15T11:18:06.069Z,91.47
2017-09-15T11:19:19.771Z,91.96
2017-09-15T11:20:33.555Z,92.53
2017-09-15T11:21:47.212Z,92.05
2017-09-15T11:23:00.838Z,91.38
2017-09-15T11:24:15.306Z,91.38
2017-09-15T11:25:29.298Z,91.09
2017-09-15T11:26:43.115Z,91.66
2017-09-15T11:27:57.588Z,92.05
2017-09-15T11:29:11.270Z,91.38
2017-09-15T11:30:25.524Z,92.05
2017-09-15T11:31:39.122Z,90.99
2017-09-15T11:32:52.886Z,90.8
2017-09-15T11:34:06.755Z,90.52
2017-09-15T11:35:20.843Z,89.4
2017-09-15T11:36:35.746Z,89.89
2017-09-15T11:37:49.632Z,89.36
2017-09-15T11:39:03.228Z,89.46
2017-09-15T11:40:17.080Z,88.59
2017-09-15T11:41:30.669Z,89.46
2017-09-15T11:42:44.566Z,89.75
2017-09-15T11:43:58.179Z,89.65
2017-09-15T11:45:12.138Z,89.84
2017-09-15T11:46:26.152Z,89.89
2017-09-15T11:47:39.743Z,90.75
2017-09-15T11:48:53.664Z,90.8
2017-09-15T11:50:07.649Z,90.61
2017-09-15T11:51:21.574Z,91.47
2017-09-15T11:52:35.233Z,93.97
2017-09-15T11:53:49.240Z,95.17
2017-09-15T11:55:03.985Z,96.13
2017-09-15T11:56:18.511Z,95.65
2017-09-15T11:57:32.559Z,94.79
2017-09-15T11:58:46.485Z,94.88
2017-09-15T12:00:00.421Z,94.02
2017-09-15T12:01:14.081Z,94.98
2017-09-15T12:02:27.840Z,96.99
2017-09-15T12:03:41.470Z,96.51
2017-09-15T12:04:55.519Z,97.38
2017-09-15T12:06:10.641Z,96.7
2017-09-15T12:07:26.027Z,97.19
2017-09-15T12:08:39.880Z,98.38
2017-09-15T12:09:53.628Z,99.63
2017-09-15T12:11:07.777Z,97.61
2017-09-15T12:12:21.760Z,97.14
2017-09-15T12:13:36.391Z,96.37
2017-09-15T12:14:50.202Z,96.27
2017-09-15T12:16:04.403Z,95.36
2017-09-15T12:17:19.088Z,95.26
2017-09-15T12:18:32.977Z,94.11
2017-09-15T12:19:47.411Z,93.15
2017-09-15T12:21:01.460Z,94.21
2017-09-15T12:22:16.126Z,92.1
2017-09-15T12:23:30.264Z,91.52
2017-09-15T12:24:44.421Z,91.28
2017-09-15T12:25:58.333Z,92.33
2017-09-15T12:27:11.968Z,93.97
2017-09-15T12:28:27.027Z,93.44
2017-09-15T12:29:41.038Z,94.12
2017-09-15T12:30:55.024Z,94.49
2017-09-15T12:32:09.482Z,95.26
2017-09-15T12:33:55.562Z,97.14
2017-09-15T12:35:09.585Z,99.19
2017-09-15T12:36:24.569Z,99.99
2017-09-15T12:37:38.780Z,99.99
2017-09-15T12:38:52.810Z,99.99
2017-09-15T12:40:07.308Z,99.99
2017-09-15T12:41:21.542Z,99.99
2017-09-15T12:42:36.139Z,99.99
2017-09-15T12:43:50.366Z,99.99
2017-09-15T12:45:04.270Z,99.99
2017-09-15T12:46:17.936Z,99.99
2017-09-15T12:47:31.814Z,99.99
2017-09-15T12:48:46.352Z,99.99
2017-09-15T12:50:00.085Z,99.99
2017-09-15T12:51:13.689Z,99.99
2017-09-15T12:52:27.568Z,99.99
2017-09-15T12:53:41.192Z,99.99
2017-09-15T12:54:55.340Z,99.99
2017-09-15T12:56:09.040Z,99.99
2017-09-15T12:57:22.629Z,99.99
2017-09-15T12:58:36.551Z,99.99
2017-09-15T12:59:50.606Z,99.99
2017-09-15T13:01:04.450Z,99.99
2017-09-15T13:02:18.235Z,99.99
2017-09-15T13:03:31.820Z,99.99
2017-09-15T13:04:45.686Z,99.99
2017-09-15T13:05:59.324Z,99.99
2017-09-15T13:07:13.290Z,99.99
2017-09-15T13:08:26.970Z,99.99
2017-09-15T13:09:41.370Z,99.99
2017-09-15T13:10:55.624Z,98.62
2017-09-15T13:12:09.285Z,97.56
2017-09-15T13:13:23.271Z,97.76
2017-09-15T13:14:36.989Z,97.19
2017-09-15T13:15:52.022Z,98.91
2017-09-15T13:17:05.985Z,99.58
2017-09-15T13:18:20.873Z,99.01
2017-09-15T13:19:34.674Z,98.96
2017-09-15T13:20:48.541Z,96.32
2017-09-15T13:22:02.934Z,95.55
2017-09-15T13:23:16.550Z,95.07
2017-09-15T13:24:30.218Z,96.42
2017-09-15T13:25:43.838Z,95.94
2017-09-15T13:26:57.517Z,95.31
2017-09-15T13:28:11.374Z,95.31
2017-09-15T13:29:25.066Z,96.27
2017-09-15T13:30:39.021Z,95.21
2017-09-15T13:31:52.855Z,95.51
2017-09-15T13:33:06.475Z,95.89
2017-09-15T13:34:20.111Z,97.23
2017-09-15T13:35:33.685Z,97.14
2017-09-15T13:36:47.424Z,99.15
2017-09-15T13:38:01.064Z,98.62
2017-09-15T13:39:15.117Z,99.77
2017-09-15T13:40:29.156Z,98.62
2017-09-15T13:41:43.237Z,99.39
2017-09-15T13:42:57.014Z,97.28
2017-09-15T13:44:10.750Z,95.07
2017-09-15T13:45:25.949Z,93.82
2017-09-15T13:46:40.041Z,94.49
2017-09-15T13:47:54.174Z,94.59
2017-09-15T13:49:07.878Z,94.59
2017-09-15T13:50:21.486Z,93.39
2017-09-15T13:51:35.320Z,93.97
2017-09-15T13:52:49.551Z,93.92
2017-09-15T13:54:03.561Z,93.15
2017-09-15T13:55:18.321Z,93.63
2017-09-15T13:56:32.161Z,95.94
2017-09-15T13:57:46.319Z,95.75
2017-09-15T13:59:00.288Z,95.89
2017-09-15T14:00:14.007Z,94.88
2017-09-15T14:01:31.735Z,96.22
2017-09-15T14:02:45.950Z,95.17
2017-09-15T14:03:59.536Z,91.42
2017-09-15T14:05:13.495Z,92.15
2017-09-15T14:06:27.200Z,92.63
2017-09-15T14:07:40.830Z,92.34
2017-09-15T14:08:54.808Z,90.81
2017-09-15T14:10:08.423Z,92.15
2017-09-15T14:11:22.027Z,93.49
2017-09-15T14:12:36.556Z,93.21
2017-09-15T14:13:50.277Z,91.96
2017-09-15T14:15:04.254Z,90.71
2017-09-15T14:16:18.152Z,88.26
2017-09-15T14:17:31.737Z,87.49
2017-09-15T14:18:45.417Z,89.61
2017-09-15T14:19:59.018Z,91.91
2017-09-15T14:21:12.771Z,92.96
2017-09-15T14:22:26.432Z,93.06
2017-09-15T14:23:40.115Z,93.06
2017-09-15T14:24:54.065Z,92.96
2017-09-15T14:26:07.916Z,93.44
2017-09-15T14:27:22.062Z,96.03
2017-09-15T14:28:36.359Z,98.14
2017-09-15T14:29:50.121Z,98.19
2017-09-15T14:31:04.145Z,99.44
2017-09-15T14:32:18.626Z,99.91
2017-09-15T14:33:33.228Z,98.67
2017-09-15T14:34:47.513Z,98.48
2017-09-15T14:36:01.133Z,99.48
2017-09-15T14:37:14.941Z,98.62
2017-09-15T14:38:28.718Z,97.66
2017-09-15T14:39:42.853Z,99.39
2017-09-15T14:40:56.762Z,98.52
2017-09-15T14:42:10.580Z,97.56
2017-09-15T14:43:24.315Z,96.94
2017-09-15T14:44:39.465Z,96.47
2017-09-15T14:45:53.243Z,95.79
2017-09-15T14:47:06.833Z,95.03
2017-09-15T14:48:20.452Z,93.25
2017-09-15T14:49:34.090Z,94.88
2017-09-15T14:50:48.306Z,94.69
2017-09-15T14:52:02.712Z,93.82
2017-09-15T14:53:16.612Z,93.06
2017-09-15T14:54:30.219Z,94.02
2017-09-15T14:55:44.587Z,93.35
2017-09-15T14:56:58.191Z,91.57
2017-09-15T14:58:13.510Z,91.28
2017-09-15T14:59:27.799Z,88.98
2017-09-15T15:00:41.482Z,88.07
2017-09-15T15:01:55.513Z,87.55
2017-09-15T15:03:09.282Z,88.02
2017-09-15T15:04:23.582Z,90.04
2017-09-15T15:05:37.667Z,90.42
2017-09-15T15:06:51.620Z,89.51
2017-09-15T15:08:05.254Z,89.61
2017-09-15T15:09:18.928Z,88.74
2017-09-15T15:10:32.837Z,89.03
2017-09-15T15:11:47.298Z,87.3
2017-09-15T15:13:01.013Z,86.63
2017-09-15T15:14:15.005Z,86.72
2017-09-15T15:15:28.847Z,84.27
2017-09-15T15:16:42.862Z,82.31
2017-09-15T15:17:58.124Z,80.97
2017-09-15T15:19:12.259Z,80.3
2017-09-15T15:20:28.000Z,82.6
2017-09-15T15:21:42.554Z,82.7
2017-09-15T15:22:56.205Z,83.56
2017-09-15T15:24:10.901Z,84.14
2017-09-15T15:25:24.716Z,81.84
2017-09-15T15:26:38.956Z,81.54
2017-09-15T15:27:53.064Z,83.18
2017-09-15T15:29:07.741Z,85.19
2017-09-15T15:30:21.686Z,88.55
2017-09-15T15:31:35.683Z,90.08
2017-09-15T15:32:49.290Z,91.24
2017-09-15T15:34:02.913Z,92.58
2017-09-15T15:35:16.519Z,92.72
2017-09-15T15:36:31.050Z,92.91
2017-09-15T15:37:45.025Z,92.91
2017-09-15T15:38:59.116Z,94.35
2017-09-15T15:40:32.241Z,95.36
2017-09-15T15:41:47.746Z,96.13
2017-09-15T15:43:01.510Z,96.03
2017-09-15T15:44:15.218Z,96.7
2017-09-15T15:45:29.179Z,96.7
2017-09-15T15:46:43.608Z,97.09
2017-09-15T15:47:57.567Z,97.52
2017-09-15T15:49:11.369Z,97.52
2017-09-15T15:50:25.034Z,98
2017-09-15T15:51:39.126Z,98.05
2017-09-15T15:52:53.738Z,98.52
2017-09-15T15:54:08.814Z,98.52
2017-09-15T15:55:22.783Z,99.38
2017-09-15T15:56:37.191Z,99.1
2017-09-15T15:57:50.927Z,99.19
2017-09-15T15:59:04.892Z,99.38
2017-09-15T16:00:18.810Z,99.34
2017-09-15T16:01:32.459Z,98.71
2017-09-15T16:02:46.067Z,97.66
2017-09-15T16:04:00.031Z,96.7
2017-09-15T16:05:13.919Z,96.7
2017-09-15T16:06:28.452Z,96.22
2017-09-15T16:07:42.462Z,97.18
2017-09-15T16:08:56.275Z,98.14
2017-09-15T16:10:10.277Z,99.43
2017-09-15T16:11:24.214Z,99.72
2017-09-15T16:12:38.132Z,99.99
2017-09-15T16:13:51.740Z,99.99
2017-09-15T16:15:05.646Z,99.99
2017-09-15T16:16:19.803Z,99.99
2017-09-15T16:17:34.389Z,99.99
2017-09-15T16:18:49.527Z,99.99
2017-09-15T16:20:03.322Z,99.99
2017-09-15T16:21:17.790Z,99.99
2017-09-15T16:22:31.603Z,99.99
2017-09-15T16:23:45.941Z,99.99
2017-09-15T16:25:00.631Z,99.99
2017-09-15T16:26:14.526Z,99.99
2017-09-15T16:27:28.133Z,99.99
2017-09-15T16:28:41.765Z,99.99
2017-09-15T16:29:55.344Z,99.99
2017-09-15T16:31:09.659Z,99.99
2017-09-15T16:32:24.385Z,99.99
2017-09-15T16:33:39.133Z,99.99
2017-09-15T16:34:54.687Z,99.99
2017-09-15T16:36:09.358Z,99.99
2017-09-15T16:37:24.404Z,99.99
2017-09-15T16:38:38.660Z,99.99
2017-09-15T16:39:52.290Z,99.99
2017-09-15T16:41:07.819Z,99.99
2017-09-15T16:42:22.659Z,99.99
2017-09-15T16:43:36.560Z,99.99
2017-09-15T16:44:50.331Z,99.99
2017-09-15T16:46:04.012Z,99.99
2017-09-15T16:47:18.079Z,99.99
2017-09-15T16:48:32.436Z,99.99
2017-09-15T16:49:46.462Z,99.99
2017-09-15T16:51:00.195Z,99.99
2017-09-15T16:52:14.772Z,99.99
2017-09-15T16:53:28.884Z,99.99
2017-09-15T16:54:44.164Z,99.99
2017-09-15T16:56:00.334Z,99.99
2017-09-15T16:57:15.672Z,99.99
2017-09-15T16:58:30.099Z,99.99
2017-09-15T16:59:44.295Z,99.99
2017-09-15T17:00:57.916Z,99.99
2017-09-15T17:02:12.010Z,99.99
2017-09-15T17:03:26.452Z,99.99
2017-09-15T17:04:40.129Z,99.99
2017-09-15T17:05:53.806Z,99.99
2017-09-15T17:07:07.603Z,99.99
2017-09-15T17:08:21.819Z,99.99
2017-09-15T17:09:35.819Z,99.99
2017-09-15T17:10:50.263Z,99.99
2017-09-15T17:12:03.965Z,99.99
2017-09-15T17:13:18.044Z,99.99
2017-09-15T17:14:31.728Z,99.99
2017-09-15T17:15:45.560Z,99.99
2017-09-15T17:16:59.884Z,99.99
2017-09-15T17:18:14.218Z,99.99
2017-09-15T17:19:28.791Z,99.99
2017-09-15T17:20:42.801Z,99.99
2017-09-15T17:21:56.459Z,99.99
2017-09-15T17:23:10.173Z,99.99
2017-09-15T17:24:24.283Z,99.99
2017-09-15T17:25:38.079Z,99.99
2017-09-15T17:26:52.460Z,99.99
2017-09-15T17:28:06.094Z,99.99
2017-09-15T17:29:22.862Z,99.99
2017-09-15T17:30:46.690Z,99.99
2017-09-15T17:32:14.232Z,99.99
2017-09-15T17:33:41.055Z,99.99
2017-09-15T17:35:04.747Z,99.99
2017-09-15T17:36:18.786Z,99.99
2017-09-15T17:37:32.828Z,99.99
2017-09-15T17:38:46.613Z,99.99
2017-09-15T17:40:00.966Z,99.99
2017-09-15T17:41:14.829Z,99.99
2017-09-15T17:42:28.614Z,99.99
2017-09-15T17:43:42.339Z,99.99
2017-09-15T17:44:56.652Z,99.99
2017-09-15T17:46:10.666Z,99.99
2017-09-15T17:47:25.068Z,99.99
2017-09-15T17:48:38.717Z,99.99
2017-09-15T17:49:52.334Z,99.99
2017-09-15T17:51:06.460Z,99.99
2017-09-15T17:52:20.482Z,99.99
2017-09-15T17:53:34.498Z,99.99
2017-09-15T17:54:48.151Z,99.99
2017-09-15T17:56:01.832Z,99.99
2017-09-15T17:57:17.158Z,99.99
2017-09-15T17:58:31.082Z,99.99
2017-09-15T17:59:45.505Z,99.99
2017-09-15T18:00:59.326Z,99.99
2017-09-15T18:02:12.934Z,99.99
2017-09-15T18:03:27.131Z,99.99
2017-09-15T18:04:41.046Z,99.99
2017-09-15T18:05:54.740Z,99.99
2017-09-15T18:07:08.812Z,99.99
2017-09-15T18:08:22.532Z,99.99
2017-09-15T18:09:37.111Z,99.99
2017-09-15T18:10:50.669Z,99.99
2017-09-15T18:12:04.788Z,99.99
2017-09-15T18:13:19.098Z,99.99
2017-09-15T18:14:34.092Z,99.99
2017-09-15T18:15:48.722Z,99.99
2017-09-15T18:17:03.540Z,99.99
2017-09-15T18:18:17.628Z,99.99
2017-09-15T18:19:31.265Z,99.99
2017-09-15T18:20:44.931Z,99.99
2017-09-15T18:22:00.203Z,99.99
2017-09-15T18:23:14.949Z,99.99
2017-09-15T18:24:29.254Z,99.99
2017-09-15T18:25:43.010Z,99.99
2017-09-15T18:26:57.678Z,99.99
2017-09-15T18:28:11.825Z,99.99
2017-09-15T18:29:26.671Z,99.99
2017-09-15T18:30:41.207Z,99.99
2017-09-15T18:31:55.514Z,99.99
2017-09-15T18:33:09.658Z,99.99
2017-09-15T18:34:24.372Z,99.99
2017-09-15T18:35:39.400Z,99.99
2017-09-15T18:36:53.731Z,99.99
2017-09-15T18:38:08.446Z,99.99
2017-09-15T18:39:23.098Z,99.99
2017-09-15T18:40:37.375Z,99.99
2017-09-15T18:41:51.244Z,99.99
2017-09-15T18:43:04.939Z,99.99
2017-09-15T18:44:18.685Z,99.99
2017-09-15T18:45:32.818Z,99.99
2017-09-15T18:46:47.085Z,99.99
2017-09-15T18:48:00.805Z,99.99
2017-09-15T18:49:14.802Z,99.99
2017-09-15T18:50:28.519Z,99.99
2017-09-15T18:51:42.159Z,99.99
2017-09-15T18:52:56.503Z,99.99
2017-09-15T18:54:11.210Z,99.99
2017-09-15T18:55:25.059Z,99.99
2017-09-15T18:56:38.931Z,99.99
2017-09-15T18:57:52.852Z,99.99
2017-09-15T18:59:06.643Z,99.99
2017-09-15T19:00:20.301Z,99.99
2017-09-15T19:01:34.311Z,99.99
2017-09-15T19:02:48.021Z,99.99
2017-09-15T19:04:02.492Z,99.99
2017-09-15T19:05:20.329Z,99.99
2017-09-15T19:06:34.435Z,99.99
2017-09-15T19:07:48.104Z,99.99
2017-09-15T19:09:02.242Z,99.99
2017-09-15T19:10:15.968Z,99.99
2017-09-15T19:11:30.026Z,99.99
2017-09-15T19:12:44.105Z,99.99
2017-09-15T19:13:59.798Z,99.99
2017-09-15T19:15:13.960Z,99.99
2017-09-15T19:16:27.624Z,99.99
2017-09-15T19:17:41.887Z,99.99
2017-09-15T19:18:55.668Z,99.99
2017-09-15T19:20:10.505Z,99.99
2017-09-15T19:21:27.033Z,99.99
2017-09-15T19:22:41.232Z,99.99
2017-09-15T19:23:55.746Z,99.99
2017-09-15T19:25:09.738Z,99.99
2017-09-15T19:26:23.414Z,99.99
2017-09-15T19:27:37.001Z,99.99
2017-09-15T19:28:51.026Z,99.99
2017-09-15T19:30:05.472Z,99.99
2017-09-15T19:31:19.367Z,99.99
2017-09-15T19:32:33.768Z,99.99
2017-09-15T19:33:47.370Z,99.99
2017-09-15T19:35:01.286Z,99.99
2017-09-15T19:36:15.801Z,99.99
2017-09-15T19:37:29.663Z,99.99
2017-09-15T19:38:43.782Z,99.99
2017-09-15T19:39:57.560Z,99.99
2017-09-15T19:41:11.199Z,99.99
2017-09-15T19:42:25.916Z,99.99
2017-09-15T19:43:41.101Z,99.99
2017-09-15T19:44:55.854Z,99.99
2017-09-15T19:46:10.339Z,99.99
2017-09-15T19:47:24.357Z,99.99
2017-09-15T19:48:40.311Z,99.99
2017-09-15T19:49:54.119Z,99.99
2017-09-15T19:51:08.641Z,99.99
2017-09-15T19:52:22.625Z,99.99
2017-09-15T19:53:36.432Z,99.99
2017-09-15T19:54:50.762Z,99.99
2017-09-15T19:56:04.574Z,99.99
2017-09-15T19:57:18.152Z,99.99
2017-09-15T19:58:32.156Z,99.99
2017-09-15T19:59:45.958Z,99.99
2017-09-15T20:01:00.240Z,99.99
2017-09-15T20:02:13.872Z,99.99
2017-09-15T20:03:27.603Z,99.99
2017-09-15T20:04:55.283Z,99.99
2017-09-15T20:07:00.806Z,99.99
2017-09-15T20:09:00.300Z,99.99
2017-09-15T20:11:12.018Z,99.99
2017-09-15T20:13:10.552Z,99.99
2017-09-15T20:15:09.640Z,99.99
2017-09-15T20:16:23.270Z,99.99
2017-09-15T20:17:36.938Z,99.99
2017-09-15T20:18:50.767Z,99.99
2017-09-15T20:20:19.505Z,99.99
2017-09-15T20:21:33.557Z,99.99
2017-09-15T20:22:47.670Z,99.99
2017-09-15T20:24:01.779Z,99.99
2017-09-15T20:25:15.913Z,99.99
2017-09-15T20:26:29.813Z,99.99
2017-09-15T20:27:43.450Z,99.99
2017-09-15T20:28:57.056Z,99.99
2017-09-15T20:30:11.293Z,99.99
2017-09-15T20:31:28.311Z,99.99
2017-09-15T20:32:42.299Z,99.99
2017-09-15T20:33:56.340Z,99.99
2017-09-15T20:35:09.936Z,99.99
2017-09-15T20:36:23.552Z,99.99
2017-09-15T20:37:37.431Z,99.99
2017-09-15T20:38:51.670Z,99.99
2017-09-15T20:40:05.540Z,99.99
2017-09-15T20:41:20.076Z,99.99
2017-09-15T20:42:34.286Z,99.99
2017-09-15T20:43:47.897Z,99.99
2017-09-15T20:45:01.763Z,99.99
2017-09-15T20:46:15.399Z,99.99
2017-09-15T20:47:29.191Z,99.99
2017-09-15T20:48:42.795Z,99.99
2017-09-15T20:49:59.030Z,99.99
2017-09-15T20:51:13.083Z,99.99
2017-09-15T20:52:26.659Z,99.99
2017-09-15T20:53:40.939Z,99.99
2017-09-15T20:54:55.155Z,99.99
2017-09-15T20:56:08.961Z,99.99
2017-09-15T20:57:22.859Z,99.99
2017-09-15T20:58:36.465Z,99.99
2017-09-15T20:59:50.682Z,99.99
2017-09-15T21:01:04.545Z,99.99
2017-09-15T21:02:18.537Z,99.99
2017-09-15T21:03:32.459Z,99.99
2017-09-15T21:04:47.768Z,99.99